createdAt,value
2023-02-21T00:00:07.258Z,4.67
2023-02-21T00:03:17.304Z,4.60
2023-02-21T00:06:21.336Z,4.40
2023-02-21T00:09:25.092Z,4.30
2023-02-21T00:12:29.022Z,4.43
2023-02-21T00:15:32.904Z,4.30
2023-02-21T00:18:36.786Z,4.80
2023-02-21T00:21:41.012Z,4.40
2023-02-21T00:24:44.673Z,4.57
2023-02-21T00:27:48.389Z,3.93
2023-02-21T00:30:52.362Z,4.13
2023-02-21T00:33:56.023Z,3.87
2023-02-21T00:36:59.792Z,3.83
2023-02-21T00:40:03.637Z,4.07
2023-02-21T00:43:07.611Z,4.37
2023-02-21T00:46:11.325Z,4.10
2023-02-21T00:49:15.253Z,4.07
2023-02-21T00:52:19.138Z,3.53
2023-02-21T00:55:23.356Z,4.17
2023-02-21T00:58:27.448Z,3.77
2023-02-21T01:01:31.173Z,3.37
2023-02-21T01:07:38.778Z,3.70
2023-02-21T01:10:48.862Z,3.50
2023-02-21T01:13:52.770Z,3.20
2023-02-21T01:16:59.421Z,3.67
2023-02-21T01:20:11.464Z,3.50
2023-02-21T01:26:19.219Z,3.15
2023-02-21T01:32:26.871Z,3.25
2023-02-21T01:35:30.769Z,3.57
2023-02-21T01:38:34.640Z,3.57
2023-02-21T01:41:39.472Z,3.37
2023-02-21T01:44:57.541Z,3.17
2023-02-21T01:48:01.548Z,3.30
2023-02-21T01:51:05.473Z,3.00
2023-02-21T01:54:09.847Z,2.97
2023-02-21T01:57:16.291Z,2.73
2023-02-21T02:00:23.726Z,3.00
2023-02-21T02:03:33.762Z,3.17
2023-02-21T02:06:38.507Z,3.00
2023-02-21T02:09:42.463Z,2.87
2023-02-21T02:12:52.238Z,3.10
2023-02-21T02:16:06.196Z,2.83
2023-02-21T02:19:02.720Z,3.20
2023-02-21T02:21:57.026Z,2.63
2023-02-21T02:24:57.674Z,2.60
2023-02-21T02:28:16.222Z,2.87
2023-02-21T02:31:38.491Z,3.00
2023-02-21T02:34:52.909Z,2.78
2023-02-21T02:37:51.245Z,2.27
2023-02-21T02:41:11.747Z,2.40
2023-02-21T02:44:12.761Z,2.50
2023-02-21T02:47:02.153Z,2.60
2023-02-21T02:49:49.406Z,2.70
2023-02-21T02:52:35.487Z,2.70
2023-02-21T02:55:34.265Z,2.27
2023-02-21T02:58:22.686Z,2.93
2023-02-21T03:01:34.024Z,2.63
2023-02-21T03:04:48.712Z,2.70
2023-02-21T03:07:46.588Z,2.60
2023-02-21T03:11:07.562Z,2.40
2023-02-21T03:14:13.945Z,2.60
2023-02-21T03:17:07.569Z,2.50
2023-02-21T03:22:42.816Z,2.40
2023-02-21T03:25:30.739Z,2.17
2023-02-21T03:28:20.297Z,2.33
2023-02-21T03:31:09.144Z,2.10
2023-02-21T03:33:54.549Z,2.50
2023-02-21T03:36:40.309Z,2.00
2023-02-21T03:39:26.894Z,2.17
2023-02-21T03:42:12.274Z,2.23
2023-02-21T03:44:59.072Z,2.20
2023-02-21T03:47:45.521Z,2.40
2023-02-21T03:50:30.853Z,2.10
2023-02-21T03:53:16.810Z,2.00
2023-02-21T03:56:04.516Z,2.13
2023-02-21T03:59:05.905Z,2.30
2023-02-21T04:01:51.041Z,1.90
2023-02-21T04:04:37.299Z,1.90
2023-02-21T04:07:26.489Z,1.90
2023-02-21T04:10:12.093Z,2.20
2023-02-21T04:13:03.352Z,2.30
2023-02-21T04:15:52.526Z,1.93
2023-02-21T04:18:38.784Z,2.10
2023-02-21T04:21:26.689Z,2.13
2023-02-21T04:24:14.632Z,2.30
2023-02-21T04:27:00.105Z,2.00
2023-02-21T04:29:47.526Z,2.00
2023-02-21T04:32:33.379Z,2.07
2023-02-21T04:35:24.217Z,2.00
2023-02-21T04:38:10.054Z,1.47
2023-02-21T04:40:55.356Z,1.83
2023-02-21T04:43:43.057Z,1.83
2023-02-21T04:46:28.554Z,2.20
2023-02-21T04:49:13.934Z,1.70
2023-02-21T04:51:59.211Z,1.80
2023-02-21T04:54:45.641Z,2.10
2023-02-21T04:57:30.764Z,1.90
2023-02-21T05:00:16.652Z,2.00
2023-02-21T05:03:01.849Z,2.03
2023-02-21T05:05:47.082Z,1.60
2023-02-21T05:08:32.303Z,1.60
2023-02-21T05:11:19.337Z,1.70
2023-02-21T05:14:04.836Z,2.00
2023-02-21T05:16:50.022Z,1.90
2023-02-21T05:19:35.266Z,1.67
2023-02-21T05:22:21.269Z,1.90
2023-02-21T05:25:14.190Z,1.63
2023-02-21T05:27:59.294Z,1.50
2023-02-21T05:30:44.624Z,1.90
2023-02-21T05:33:29.843Z,1.70
2023-02-21T05:36:15.302Z,1.50
2023-02-21T05:39:00.694Z,1.57
2023-02-21T05:41:49.526Z,1.40
2023-02-21T05:44:35.361Z,1.60
2023-02-21T05:47:20.592Z,1.40
2023-02-21T05:50:06.169Z,1.17
2023-02-21T05:52:51.882Z,1.47
2023-02-21T05:55:37.458Z,1.53
2023-02-21T05:58:22.940Z,1.83
2023-02-21T06:01:08.359Z,1.40
2023-02-21T06:03:53.528Z,1.50
2023-02-21T06:06:39.416Z,1.30
2023-02-21T06:09:24.649Z,1.50
2023-02-21T06:12:10.163Z,1.37
2023-02-21T06:14:55.366Z,1.40
2023-02-21T06:17:41.428Z,1.53
2023-02-21T06:20:27.070Z,1.30
2023-02-21T06:23:12.228Z,1.50
2023-02-21T06:25:57.454Z,1.50
2023-02-21T06:28:42.763Z,1.30
2023-02-21T06:31:28.024Z,1.17
2023-02-21T06:34:13.339Z,1.30
2023-02-21T06:36:58.730Z,1.20
2023-02-21T06:39:44.082Z,1.50
2023-02-21T06:42:30.038Z,1.30
2023-02-21T06:45:15.800Z,1.40
2023-02-21T06:48:01.066Z,1.30
2023-02-21T06:50:46.292Z,1.37
2023-02-21T06:53:31.578Z,1.40
2023-02-21T06:56:16.886Z,1.30
2023-02-21T06:59:02.782Z,1.47
2023-02-21T07:01:48.150Z,1.30
2023-02-21T07:04:33.393Z,1.27
2023-02-21T07:07:18.811Z,1.30
2023-02-21T07:10:04.476Z,1.40
2023-02-21T07:12:49.738Z,1.37
2023-02-21T07:15:34.973Z,1.40
2023-02-21T07:18:20.281Z,1.50
2023-02-21T07:21:06.006Z,1.30
2023-02-21T07:23:51.357Z,1.43
2023-02-21T07:26:37.881Z,1.33
2023-02-21T07:29:23.993Z,1.27
2023-02-21T07:32:09.173Z,1.47
2023-02-21T07:34:54.508Z,1.63
2023-02-21T07:37:39.754Z,1.83
2023-02-21T07:40:25.086Z,2.27
2023-02-21T07:43:10.388Z,2.33
2023-02-21T07:45:56.299Z,2.60
2023-02-21T07:48:41.755Z,2.27
2023-02-21T07:51:30.891Z,2.17
2023-02-21T07:54:17.088Z,2.60
2023-02-21T07:57:02.577Z,2.80
2023-02-21T07:59:48.538Z,2.87
2023-02-21T08:02:33.730Z,2.60
2023-02-21T08:05:20.645Z,3.07
2023-02-21T08:08:10.356Z,2.70
2023-02-21T08:10:55.749Z,3.00
2023-02-21T08:13:40.975Z,2.87
2023-02-21T08:16:26.269Z,3.60
2023-02-21T08:19:11.503Z,3.13
2023-02-21T08:21:56.741Z,3.33
2023-02-21T08:24:42.038Z,4.43
2023-02-21T08:27:27.284Z,3.87
2023-02-21T08:30:16.347Z,4.37
2023-02-21T08:33:02.312Z,4.90
2023-02-21T08:35:47.750Z,4.70
2023-02-21T08:38:33.724Z,5.03
2023-02-21T08:41:19.127Z,4.80
2023-02-21T08:44:05.685Z,4.97
2023-02-21T08:46:51.425Z,4.90
2023-02-21T08:49:39.977Z,5.00
2023-02-21T08:52:25.241Z,4.50
2023-02-21T08:55:10.515Z,4.07
2023-02-21T08:57:55.853Z,3.70
2023-02-21T09:00:41.238Z,4.37
2023-02-21T09:03:26.526Z,4.30
2023-02-21T09:06:12.097Z,4.00
2023-02-21T09:08:57.955Z,3.90
2023-02-21T09:11:47.114Z,3.40
2023-02-21T09:14:32.322Z,3.50
2023-02-21T09:17:17.603Z,3.77
2023-02-21T09:20:08.863Z,3.43
2023-02-21T09:22:54.219Z,3.67
2023-02-21T09:25:39.519Z,4.13
2023-02-21T09:28:25.214Z,3.73
2023-02-21T09:31:10.709Z,3.97
2023-02-21T09:39:18.468Z,4.20
2023-02-21T09:42:03.071Z,5.30
2023-02-21T09:44:48.030Z,7.70
2023-02-21T09:47:37.563Z,8.73
2023-02-21T09:50:29.639Z,9.03
2023-02-21T09:53:38.239Z,9.03
2023-02-21T09:56:34.699Z,9.03
2023-02-21T09:59:19.954Z,8.07
2023-02-21T10:02:30.682Z,8.43
2023-02-21T10:05:39.319Z,8.37
2023-02-21T10:08:57.402Z,7.20
2023-02-21T10:11:59.186Z,7.63
2023-02-21T10:15:22.814Z,7.20
2023-02-21T10:18:11.512Z,6.55
2023-02-21T10:21:05.027Z,6.90
2023-02-21T10:23:54.558Z,6.47
2023-02-21T10:26:44.035Z,6.50
2023-02-21T10:29:56.103Z,6.60
2023-02-21T10:32:41.592Z,5.60
2023-02-21T10:35:26.863Z,5.80
2023-02-21T10:38:16.048Z,6.10
2023-02-21T10:41:04.652Z,5.97
2023-02-21T10:43:55.540Z,5.43
2023-02-21T10:46:47.611Z,5.87
2023-02-21T10:50:12.143Z,5.37
2023-02-21T10:52:57.697Z,5.53
2023-02-21T10:55:44.579Z,5.70
2023-02-21T10:58:30.676Z,5.63
2023-02-21T11:01:30.541Z,5.53
2023-02-21T11:04:27.134Z,5.47
2023-02-21T11:07:15.847Z,5.67
2023-02-21T11:10:01.392Z,6.63
2023-02-21T11:13:02.397Z,6.30
2023-02-21T11:15:48.581Z,6.03
2023-02-21T11:18:33.831Z,5.27
2023-02-21T11:21:19.974Z,5.97
2023-02-21T11:24:07.189Z,5.83
2023-02-21T11:26:53.823Z,5.93
2023-02-21T11:29:43.309Z,6.40
2023-02-21T11:32:33.266Z,5.53
2023-02-21T11:35:27.176Z,5.83
2023-02-21T11:41:27.588Z,5.23
2023-02-21T11:44:43.197Z,5.10
2023-02-21T11:47:43.404Z,6.07
2023-02-21T11:50:35.129Z,4.70
2023-02-21T11:53:25.887Z,5.80
2023-02-21T11:56:28.297Z,5.33
2023-02-21T11:59:24.090Z,5.47
2023-02-21T12:02:21.422Z,5.13
2023-02-21T12:05:30.007Z,5.70
2023-02-21T12:08:25.268Z,5.13
2023-02-21T12:11:31.673Z,5.40
2023-02-21T12:14:16.701Z,5.30
2023-02-21T12:17:05.013Z,4.83
2023-02-21T12:20:10.654Z,4.37
2023-02-21T12:23:12.588Z,4.60
2023-02-21T12:26:16.656Z,4.60
2023-02-21T12:29:22.500Z,4.73
2023-02-21T12:32:33.639Z,4.50
2023-02-21T12:35:31.198Z,5.00
2023-02-21T12:38:30.996Z,5.27
2023-02-21T12:41:41.044Z,5.30
2023-02-21T12:44:36.326Z,4.70
2023-02-21T12:47:32.491Z,4.83
2023-02-21T12:50:30.819Z,5.07
2023-02-21T12:53:23.140Z,5.50
2023-02-21T12:56:24.885Z,4.97
2023-02-21T12:59:31.131Z,4.97
2023-02-21T13:02:45.839Z,5.27
2023-02-21T13:05:46.006Z,4.67
2023-02-21T13:08:51.821Z,4.83
2023-02-21T13:11:43.419Z,4.80
2023-02-21T13:14:56.068Z,5.00
2023-02-21T13:17:43.512Z,5.28
2023-02-21T13:20:48.937Z,5.30
2023-02-21T13:24:14.024Z,5.00
2023-02-21T13:27:28.219Z,5.10
2023-02-21T13:30:18.095Z,5.00
2023-02-21T13:33:04.456Z,5.40
2023-02-21T13:35:51.238Z,5.33
2023-02-21T13:38:36.941Z,5.40
2023-02-21T13:41:28.600Z,5.13
2023-02-21T13:44:18.993Z,4.73
2023-02-21T13:47:23.693Z,4.40
2023-02-21T13:50:37.603Z,4.93
2023-02-21T13:53:32.506Z,4.93
2023-02-21T13:56:18.441Z,4.23
2023-02-21T13:59:26.493Z,4.87
2023-02-21T14:02:32.928Z,4.93
2023-02-21T14:05:18.559Z,4.53
2023-02-21T14:08:08.200Z,5.27
2023-02-21T14:10:56.282Z,4.07
2023-02-21T14:13:56.129Z,5.07
2023-02-21T14:17:06.152Z,4.50
2023-02-21T14:19:54.761Z,4.43
2023-02-21T14:22:42.589Z,4.57
2023-02-21T14:25:33.547Z,4.90
2023-02-21T14:28:49.927Z,4.00
2023-02-21T14:31:56.228Z,4.27
2023-02-21T14:34:47.459Z,4.20
2023-02-21T14:37:45.546Z,5.40
2023-02-21T14:40:58.669Z,4.60
2023-02-21T14:44:02.356Z,4.53
2023-02-21T14:47:25.685Z,4.80
2023-02-21T14:50:10.919Z,4.23
2023-02-21T14:53:22.814Z,4.90
2023-02-21T14:56:23.389Z,4.90
2023-02-21T14:59:27.645Z,5.07
2023-02-21T15:02:27.855Z,5.20
2023-02-21T15:05:17.938Z,5.20
2023-02-21T15:08:10.366Z,5.07
2023-02-21T15:11:05.526Z,5.13
2023-02-21T15:14:23.904Z,5.23
2023-02-21T15:17:17.746Z,5.03
2023-02-21T15:20:23.183Z,4.70
2023-02-21T15:23:19.261Z,5.33
2023-02-21T15:26:27.518Z,5.33
2023-02-21T15:29:15.327Z,5.60
2023-02-21T15:32:00.668Z,4.83
2023-02-21T15:34:47.256Z,5.93
2023-02-21T15:37:37.651Z,5.67
2023-02-21T15:40:25.703Z,5.57
2023-02-21T15:43:32.800Z,6.40
2023-02-21T15:46:25.835Z,6.20
2023-02-21T15:49:30.200Z,5.68
2023-02-21T15:52:30.427Z,5.37
2023-02-21T15:55:18.634Z,5.40
2023-02-21T15:58:07.132Z,5.67
2023-02-21T16:01:12.041Z,4.93
2023-02-21T16:04:16.037Z,6.53
2023-02-21T16:07:01.831Z,5.80
2023-02-21T16:09:50.075Z,5.57
2023-02-21T16:12:43.500Z,6.60
2023-02-21T16:15:35.543Z,6.37
2023-02-21T16:18:20.835Z,5.90
2023-02-21T16:21:08.541Z,6.83
2023-02-21T16:23:54.311Z,6.40
2023-02-21T16:26:39.595Z,5.60
2023-02-21T16:29:25.076Z,5.60
2023-02-21T16:32:19.916Z,5.10
2023-02-21T16:35:06.011Z,5.00
2023-02-21T16:37:53.584Z,5.03
2023-02-21T16:40:38.903Z,5.43
2023-02-21T16:43:26.869Z,4.80
2023-02-21T16:46:13.441Z,5.37
2023-02-21T16:48:59.950Z,4.83
2023-02-21T16:51:45.839Z,4.83
2023-02-21T16:54:31.345Z,4.27
2023-02-21T16:57:16.645Z,3.60
2023-02-21T17:00:01.839Z,4.57
2023-02-21T17:02:51.018Z,4.17
2023-02-21T17:05:36.738Z,4.17
2023-02-21T17:08:22.211Z,4.63
2023-02-21T17:11:07.833Z,4.27
2023-02-21T17:13:53.106Z,4.90
2023-02-21T17:16:38.367Z,4.70
2023-02-21T17:19:24.828Z,5.00
2023-02-21T17:22:10.177Z,5.50
2023-02-21T17:24:56.136Z,6.10
2023-02-21T17:27:41.792Z,5.70
2023-02-21T17:30:26.912Z,6.53
2023-02-21T17:33:12.159Z,7.83
2023-02-21T17:35:57.994Z,7.63
2023-02-21T17:38:43.320Z,9.40
2023-02-21T17:41:29.031Z,8.97
2023-02-21T17:44:14.732Z,7.80
2023-02-21T17:47:00.354Z,9.40
2023-02-21T17:49:48.281Z,8.53
2023-02-21T17:52:33.958Z,10.43
2023-02-21T17:55:22.634Z,9.07
2023-02-21T17:58:09.728Z,9.27
2023-02-21T18:00:57.876Z,10.33
2023-02-21T18:03:43.407Z,10.30
2023-02-21T18:06:29.739Z,10.07
2023-02-21T18:09:14.947Z,10.33
2023-02-21T18:12:01.059Z,11.87
2023-02-21T18:14:46.423Z,17.07
2023-02-21T18:17:31.813Z,16.77
2023-02-21T18:20:17.727Z,18.00
2023-02-21T18:23:03.927Z,15.83
2023-02-21T18:25:49.492Z,15.47
2023-02-21T18:28:34.788Z,13.10
2023-02-21T18:31:20.587Z,13.00
2023-02-21T18:34:07.661Z,11.40
2023-02-21T18:36:54.638Z,9.40
2023-02-21T18:39:40.309Z,8.73
2023-02-21T18:42:25.690Z,9.43
2023-02-21T18:45:12.158Z,9.03
2023-02-21T18:47:57.475Z,9.60
2023-02-21T18:50:43.653Z,9.30
2023-02-21T18:53:29.270Z,9.10
2023-02-21T18:56:16.735Z,8.43
2023-02-21T18:59:01.996Z,7.80
2023-02-21T19:01:51.947Z,7.17
2023-02-21T19:04:37.346Z,7.27
2023-02-21T19:07:22.535Z,6.73
2023-02-21T19:10:09.075Z,7.50
2023-02-21T19:12:54.965Z,7.07
2023-02-21T19:15:40.288Z,7.10
2023-02-21T19:18:25.953Z,7.77
2023-02-21T19:21:13.988Z,6.40
2023-02-21T19:24:00.263Z,7.03
2023-02-21T19:26:45.903Z,7.27
2023-02-21T19:29:31.081Z,6.83
2023-02-21T19:32:16.913Z,7.03
2023-02-21T19:35:02.769Z,7.53
2023-02-21T19:37:48.345Z,8.07
2023-02-21T19:40:34.693Z,7.77
2023-02-21T19:43:19.928Z,8.40
2023-02-21T19:46:05.839Z,7.73
2023-02-21T19:48:51.853Z,8.10
2023-02-21T19:51:39.235Z,7.67
2023-02-21T19:54:27.001Z,7.57
2023-02-21T19:57:12.474Z,7.87
2023-02-21T19:59:57.669Z,7.20
2023-02-21T20:02:44.615Z,7.47
2023-02-21T20:05:30.496Z,6.83
2023-02-21T20:08:16.077Z,7.30
2023-02-21T20:11:01.372Z,6.67
2023-02-21T20:13:47.052Z,6.27
2023-02-21T20:16:38.692Z,5.87
2023-02-21T20:19:25.534Z,5.70
2023-02-21T20:22:11.137Z,5.70
2023-02-21T20:24:56.165Z,6.00
2023-02-21T20:27:41.895Z,5.70
2023-02-21T20:30:27.281Z,5.67
2023-02-21T20:33:15.103Z,5.50
2023-02-21T20:36:00.504Z,5.17
2023-02-21T20:38:45.669Z,5.40
2023-02-21T20:41:34.191Z,5.47
2023-02-21T20:44:20.631Z,5.60
2023-02-21T20:47:06.067Z,5.80
2023-02-21T20:49:51.664Z,5.50
2023-02-21T20:52:36.904Z,5.50
2023-02-21T20:55:22.411Z,5.73
2023-02-21T20:58:10.407Z,5.77
2023-02-21T21:00:55.802Z,4.50
2023-02-21T21:03:41.244Z,5.10
2023-02-21T21:06:26.489Z,4.90
2023-02-21T21:09:16.526Z,5.00
2023-02-21T21:12:04.956Z,5.00
2023-02-21T21:14:53.352Z,4.93
2023-02-21T21:17:41.748Z,4.60
2023-02-21T21:20:27.291Z,4.43
2023-02-21T21:23:12.551Z,4.53
2023-02-21T21:26:01.957Z,4.77
2023-02-21T21:28:47.229Z,4.40
2023-02-21T21:31:32.485Z,4.40
2023-02-21T21:34:23.016Z,4.03
2023-02-21T21:37:09.437Z,4.50
2023-02-21T21:39:55.903Z,4.70
2023-02-21T21:42:41.644Z,4.67
2023-02-21T21:45:27.699Z,4.40
2023-02-21T21:48:14.965Z,4.87
2023-02-21T21:51:00.372Z,4.30
2023-02-21T21:53:47.120Z,4.23
2023-02-21T21:56:34.232Z,4.40
2023-02-21T21:59:20.362Z,4.13
2023-02-21T22:02:05.996Z,4.20
2023-02-21T22:04:53.595Z,3.83
2023-02-21T22:07:41.863Z,3.73
2023-02-21T22:10:27.889Z,3.80
2023-02-21T22:13:13.945Z,3.50
2023-02-21T22:15:59.864Z,3.57
2023-02-21T22:18:46.904Z,3.40
2023-02-21T22:21:32.265Z,3.70
2023-02-21T22:24:20.773Z,3.50
2023-02-21T22:27:06.358Z,3.70
2023-02-21T22:29:51.837Z,3.27
2023-02-21T22:32:37.189Z,3.50
2023-02-21T22:35:22.531Z,3.77
2023-02-21T22:38:14.089Z,3.30
2023-02-21T22:41:00.038Z,3.50
2023-02-21T22:43:50.269Z,3.77
2023-02-21T22:46:44.284Z,3.40
2023-02-21T22:49:30.757Z,4.03
2023-02-21T22:52:16.080Z,3.57
2023-02-21T22:55:01.396Z,3.43
2023-02-21T22:57:46.753Z,3.30
2023-02-21T23:00:33.903Z,3.63
2023-02-21T23:03:19.992Z,3.83
2023-02-21T23:06:06.925Z,2.90
2023-02-21T23:08:52.659Z,3.03
2023-02-21T23:11:49.967Z,3.07
2023-02-21T23:14:35.431Z,3.17
2023-02-21T23:17:20.707Z,3.03
2023-02-21T23:20:15.708Z,3.50
2023-02-21T23:23:02.039Z,3.13
2023-02-21T23:25:47.496Z,3.63
2023-02-21T23:28:34.404Z,3.00
2023-02-21T23:31:21.220Z,3.53
2023-02-21T23:34:08.160Z,3.70
2023-02-21T23:36:55.161Z,3.10
2023-02-21T23:39:42.117Z,2.90
2023-02-21T23:42:31.353Z,2.77
2023-02-21T23:45:23.140Z,3.30
2023-02-21T23:48:15.903Z,3.40
2023-02-21T23:51:01.482Z,3.20
2023-02-21T23:53:46.941Z,3.27
2023-02-21T23:56:32.213Z,2.90
2023-02-21T23:59:17.444Z,3.10
